LEIB Información de aeropuertos

Información de pistas
Pista 06 Longitud 9186 ft Ancho 148 ft
Elevación 13 ft Umbral 0 ft Rumbo 62
Pista 24 Longitud 9186 ft Ancho 148 ft
Elevación 16 ft Umbral 0 ft Rumbo 242
Frecuencias
Tipo APP Nombre PALMA APP Frequencia 118.125 MHZ
Tipo APP Nombre APP Frequencia 119.8 MHZ
Tipo ATIS Nombre ATIS Frequencia 117.8 MHZ
Tipo GND Nombre GND Frequencia 121.8 MHZ
Tipo TWR Nombre TWR Frequencia 118.5 MHZ
Radioayudas
Tipo VOR-DME Nombre Ibiza Frequencia 117800 KHZ
Tipo NDB Nombre Ibiza Frequencia 394 KHZ
Información meteorológica y NOTAM
ADDS - METARS form results

(0351 UTC 20 January 2021)
Data provider http://aviationweather.gov/metar/data/
 
METAR text: LEIB 200330Z AUTO 19006KT 160V220 9999 SCT015/// BKN017/// 13/10 Q1018
Conditions at: LEIB (IBIZA/ES CODOLA , ES) observed 0330 UTC 20 January 2021
Temperature: 13.0°C (55°F)
Dewpoint: 10.0°C (50°F) [RH = 82%]
Pressure (altimeter): 30.06 inches Hg (1018.0 mb)
Winds: from the S (190 degrees) at 7 MPH (6 knots; 3.1 m/s)
Visibility: 6 or more miles (10+ km)
Ceiling: 1700 feet AGL
Clouds: scattered clouds at 1500 feet AGL
broken clouds at 1700 feet AGL
Weather: no significant weather observed at this time

METAR text: LEIB 200300Z AUTO 21009KT 170V230 9999 BKN016/// OVC018/// 13/10 Q1019
Conditions at: LEIB (IBIZA/ES CODOLA , ES) observed 0300 UTC 20 January 2021
Temperature: 13.0°C (55°F)
Dewpoint: 10.0°C (50°F) [RH = 82%]
Pressure (altimeter): 30.09 inches Hg (1019.0 mb)
Winds: from the SSW (210 degrees) at 10 MPH (9 knots; 4.6 m/s)
Visibility: 6 or more miles (10+ km)
Ceiling: 1600 feet AGL
Clouds: broken clouds at 1600 feet AGL
overcast cloud deck at 1800 feet AGL
Weather: no significant weather observed at this time

Forecast for: LEIB (IBIZA/ES CODOLA , ES)
Text: TAF LEIB 200200Z 2003/2103 21010KT 9999 SCT015 TX16/2012Z TN08/2006Z
Forecast period: 0300 UTC 20 January 2021 to 0300 UTC 21 January 2021
Forecast type: FROM: standard forecast or significant change
Winds: from the SSW (210 degrees) at 12 MPH (10 knots; 5.1 m/s)
Visibility: 6 or more miles (10+ km)
Ceiling: at least 12,000 feet AGL
Clouds: scattered clouds at 1500 feet AGL
Weather: no significant weather forecast for this period
Text: TEMPO 2010/2101 24016G27KT
Forecast period: 1000 UTC 20 January 2021 to 0100 UTC 21 January 2021
Forecast type: TEMPORARY: The following changes expected for less than half the time period
Winds: from the WSW (240 degrees) at 18 MPH (16 knots; 8.2 m/s)
gusting to 31 MPH (27 knots; 13.9 m/s)
Visibility: missing
Ceiling: unknown
Clouds: missing
Weather: no significant weather forecast for this period